Time;durP1;ratioP1;P1;durP2;ratioP2;P2;SDS_P1;SDS_P2;PMS_P1;PMS_P2;Temp;Humidity;BMP_temperature;BMP_pressure;BME280_temperature;BME280_humidity;BME280_pressure;Samples;Min_cycle;Max_cycle;Signal;HPM_P1;HPM_P2
2022/07/15 00:00:43;;;;;;;10.18;1.60;;;12.90;99.90;;;;;;5040039;27;20533;-72
2022/07/15 00:03:08;;;;;;;11.63;1.55;;;12.90;99.90;;;;;;5016957;28;20040;-72
2022/07/15 00:05:34;;;;;;;11.68;2.33;;;13.00;99.90;;;;;;5043721;27;20049;-72
2022/07/15 00:08:00;;;;;;;8.85;1.60;;;13.00;99.90;;;;;;5051923;27;20461;-72
2022/07/15 00:10:27;;;;;;;7.40;1.33;;;13.00;99.90;;;;;;5018276;28;20128;-72
2022/07/15 00:12:55;;;;;;;13.25;1.83;;;13.10;99.90;;;;;;5037588;27;20045;-72
2022/07/15 00:15:27;;;;;;;12.70;1.70;;;13.10;99.90;;;;;;5043570;27;20038;-72
2022/07/15 00:17:54;;;;;;;11.35;1.70;;;13.10;99.90;;;;;;5032974;27;20118;-72
2022/07/15 00:20:21;;;;;;;9.02;1.58;;;13.20;99.90;;;;;;5033782;27;20092;-73
2022/07/15 00:22:48;;;;;;;9.48;1.67;;;13.20;99.90;;;;;;5035116;27;20041;-73
2022/07/15 00:25:15;;;;;;;11.15;1.90;;;13.20;99.90;;;;;;5012656;28;20389;-73
2022/07/15 00:28:10;;;;;;;14.13;2.15;;;13.30;99.90;;;;;;5043470;27;20033;-72
2022/07/15 00:30:38;;;;;;;9.20;1.65;;;13.30;99.90;;;;;;5018676;28;20049;-73
2022/07/15 00:33:04;;;;;;;12.75;1.80;;;13.40;99.90;;;;;;5053793;27;20048;-73
2022/07/15 00:35:31;;;;;;;9.25;1.45;;;13.30;99.90;;;;;;5037472;27;20996;-73
2022/07/15 00:37:57;;;;;;;8.25;1.40;;;13.30;99.90;;;;;;5040464;27;20041;-73
2022/07/15 00:40:23;;;;;;;10.13;1.73;;;13.30;99.90;;;;;;5047681;27;20029;-71
2022/07/15 00:42:49;;;;;;;12.20;1.83;;;13.30;99.90;;;;;;5033661;27;20501;-72
2022/07/15 00:45:17;;;;;;;8.95;1.50;;;13.10;99.90;;;;;;5046907;27;20059;-72
2022/07/15 00:47:55;;;;;;;10.57;1.55;;;13.20;99.90;;;;;;5012399;27;20044;-72
2022/07/15 00:50:26;;;;;;;12.07;2.10;;;13.20;99.90;;;;;;5051171;27;20080;-72
2022/07/15 00:52:57;;;;;;;9.10;1.13;;;13.00;99.90;;;;;;5044994;27;20581;-73
2022/07/15 00:55:24;;;;;;;;;;;13.00;99.90;;;;;;5044475;27;20533;-72
2022/07/15 00:57:54;;;;;;;7.88;1.42;;;12.90;99.90;;;;;;5053864;27;20307;-73
2022/07/15 01:00:21;;;;;;;10.00;1.70;;;12.80;99.90;;;;;;5070616;27;20399;-72
2022/07/15 01:02:52;;;;;;;8.27;1.45;;;12.80;99.90;;;;;;5057554;28;20045;-73
2022/07/15 01:05:20;;;;;;;12.55;1.90;;;12.70;99.90;;;;;;5049183;27;20401;-72
2022/07/15 01:07:46;;;;;;;9.00;1.40;;;12.70;99.90;;;;;;5057149;27;20128;-72
2022/07/15 01:10:12;;;;;;;8.90;1.52;;;12.70;99.90;;;;;;5010661;28;20052;-72
2022/07/15 01:12:42;;;;;;;11.50;1.77;;;12.60;99.90;;;;;;5029480;27;20040;-72
2022/07/15 01:15:09;;;;;;;8.88;1.48;;;12.60;99.90;;;;;;5016661;27;20144;-72
2022/07/15 01:17:35;;;;;;;9.73;1.52;;;12.60;99.90;;;;;;5070602;27;20050;-69
2022/07/15 01:20:01;;;;;;;9.48;1.90;;;12.70;99.90;;;;;;5066150;27;20037;-72
2022/07/15 01:22:26;;;;;;;14.48;1.80;;;12.60;99.90;;;;;;5050654;27;20129;-72
2022/07/15 01:24:53;;;;;;;9.00;1.30;;;12.50;99.90;;;;;;5043881;27;20065;-72
2022/07/15 01:27:19;;;;;;;11.38;1.48;;;12.50;99.90;;;;;;5076011;27;20482;-72
2022/07/15 01:29:44;;;;;;;12.35;1.83;;;12.60;99.90;;;;;;5066817;27;20098;-72
2022/07/15 01:32:11;;;;;;;8.45;1.60;;;12.50;99.90;;;;;;5056504;27;20041;-72
2022/07/15 01:34:36;;;;;;;8.93;1.70;;;12.50;99.90;;;;;;5051407;27;20240;-72
2022/07/15 01:37:02;;;;;;;10.60;1.52;;;12.50;99.90;;;;;;5041076;27;20615;-72
2022/07/15 01:39:29;;;;;;;11.05;1.90;;;12.50;99.90;;;;;;5056191;27;20045;-70
2022/07/15 01:41:54;;;;;;;10.10;1.55;;;12.50;99.90;;;;;;5043239;27;20447;-72
2022/07/15 01:44:20;;;;;;;10.57;1.38;;;12.50;99.90;;;;;;5070632;27;20041;-72
2022/07/15 01:46:46;;;;;;;9.60;1.58;;;12.50;99.90;;;;;;5060526;27;20064;-73
2022/07/15 01:49:26;;;;;;;11.07;2.05;;;12.40;99.90;;;;;;5048500;27;20495;-72
2022/07/15 01:51:57;;;;;;;7.78;1.60;;;12.40;99.90;;;;;;5042100;27;20070;-73
2022/07/15 01:54:24;;;;;;;11.47;1.73;;;12.40;99.90;;;;;;5040986;27;20144;-72
2022/07/15 01:56:51;;;;;;;6.05;1.40;;;12.30;99.90;;;;;;5053880;27;20083;-72
2022/07/15 01:59:17;;;;;;;11.20;2.05;;;12.30;99.90;;;;;;5045787;27;20479;-71
2022/07/15 02:01:43;;;;;;;11.80;1.95;;;12.20;99.90;;;;;;5035865;27;20045;-72
2022/07/15 02:04:10;;;;;;;13.10;1.70;;;12.10;99.90;;;;;;5059444;27;20327;-72
2022/07/15 02:06:36;;;;;;;13.55;1.55;;;12.10;99.90;;;;;;5042229;27;20037;-73
2022/07/15 02:09:02;;;;;;;7.90;1.30;;;12.00;99.90;;;;;;5038929;27;20137;-71
2022/07/15 02:11:28;;;;;;;8.15;1.67;;;12.00;99.90;;;;;;5034508;27;20120;-72
2022/07/15 02:13:59;;;;;;;5.20;1.30;;;11.90;99.90;;;;;;5067762;27;20135;-73
2022/07/15 02:16:31;;;;;;;7.45;1.50;;;11.90;99.90;;;;;;5047378;27;20063;-72
2022/07/15 02:18:58;;;;;;;7.80;1.50;;;11.80;99.90;;;;;;5039092;27;20039;-73
2022/07/15 02:21:26;;;;;;;7.25;1.50;;;11.70;99.90;;;;;;5035776;27;20037;-72
2022/07/15 02:23:57;;;;;;;11.20;1.20;;;11.70;99.90;;;;;;5065861;27;20055;-72
2022/07/15 02:26:23;;;;;;;9.25;1.35;;;11.70;99.90;;;;;;5028564;27;20108;-72
2022/07/15 02:28:49;;;;;;;7.85;1.38;;;11.60;99.90;;;;;;5056297;27;20089;-73
2022/07/15 02:31:15;;;;;;;8.40;1.30;;;11.60;99.90;;;;;;5071823;27;20465;-72
2022/07/15 02:33:44;;;;;;;9.25;1.20;;;11.50;99.90;;;;;;5050526;27;20048;-71
2022/07/15 02:36:10;;;;;;;5.68;1.00;;;11.50;99.90;;;;;;5059821;27;20130;-72
2022/07/15 02:38:36;;;;;;;6.55;1.10;;;11.50;99.90;;;;;;5025740;27;20038;-72
2022/07/15 02:41:02;;;;;;;6.45;1.45;;;11.60;99.90;;;;;;5040647;27;20409;-72
2022/07/15 02:43:29;;;;;;;10.07;1.25;;;11.60;99.90;;;;;;5038570;27;20039;-72
2022/07/15 02:45:55;;;;;;;8.20;1.33;;;11.60;99.90;;;;;;5051591;27;20042;-72
2022/07/15 02:48:21;;;;;;;9.95;1.60;;;11.60;99.90;;;;;;5081810;27;21135;-72
2022/07/15 02:50:48;;;;;;;10.70;1.45;;;11.70;99.90;;;;;;5035625;27;20074;-72
2022/07/15 02:53:14;;;;;;;7.43;1.20;;;11.70;99.90;;;;;;5032412;27;20099;-72
2022/07/15 02:55:40;;;;;;;7.20;1.30;;;11.80;99.90;;;;;;5062287;27;20046;-72
2022/07/15 02:58:06;;;;;;;7.85;1.30;;;11.90;99.90;;;;;;5053174;27;20049;-72
2022/07/15 03:00:33;;;;;;;5.82;1.10;;;11.80;99.90;;;;;;5056211;27;20105;-72
2022/07/15 03:02:59;;;;;;;10.95;1.48;;;11.80;99.90;;;;;;5050065;27;20072;-71
2022/07/15 03:05:25;;;;;;;5.53;1.00;;;11.80;99.90;;;;;;5030716;27;20049;-71
2022/07/15 03:07:51;;;;;;;5.15;1.30;;;11.70;99.90;;;;;;5054907;27;20143;-72
2022/07/15 03:10:16;;;;;;;4.82;1.10;;;11.70;99.90;;;;;;5056860;27;20046;-71
2022/07/15 03:12:42;;;;;;;6.55;1.15;;;11.60;99.90;;;;;;5058501;27;20052;-72
2022/07/15 03:15:11;;;;;;;6.05;1.08;;;11.60;99.90;;;;;;5064299;27;20498;-72
2022/07/15 03:17:37;;;;;;;5.70;0.80;;;11.50;99.90;;;;;;5069741;27;20435;-72
2022/07/15 03:20:04;;;;;;;5.22;0.90;;;11.40;99.90;;;;;;5067026;27;20531;-71
2022/07/15 03:22:29;;;;;;;9.55;1.20;;;11.40;99.90;;;;;;5054703;27;20485;-72
2022/07/15 03:24:55;;;;;;;7.90;1.10;;;11.40;99.90;;;;;;5056214;27;21575;-71
2022/07/15 03:27:21;;;;;;;9.52;1.17;;;11.40;99.90;;;;;;5055503;27;20052;-72
2022/07/15 03:29:47;;;;;;;6.78;1.15;;;11.40;99.90;;;;;;5046547;27;20413;-72
2022/07/15 03:32:15;;;;;;;2.85;0.80;;;11.40;99.90;;;;;;5027396;27;20049;-72
2022/07/15 03:34:42;;;;;;;5.00;0.70;;;11.40;99.90;;;;;;5032030;27;20044;-72
2022/07/15 03:37:08;;;;;;;6.00;0.93;;;11.40;99.90;;;;;;5037673;27;20044;-72
2022/07/15 03:39:34;;;;;;;8.05;1.42;;;11.60;99.90;;;;;;5041579;27;20035;-71
2022/07/15 03:42:00;;;;;;;7.43;1.08;;;11.50;99.90;;;;;;5035893;27;20046;-72
2022/07/15 03:44:25;;;;;;;5.45;1.33;;;11.50;99.90;;;;;;5032324;27;20042;-72
2022/07/15 03:46:51;;;;;;;5.50;0.93;;;11.60;99.90;;;;;;5039455;27;20550;-72
2022/07/15 03:49:17;;;;;;;4.35;1.20;;;11.60;99.90;;;;;;5044081;27;20052;-71
2022/07/15 03:51:43;;;;;;;5.53;1.00;;;11.60;99.90;;;;;;5036430;28;20068;-71
2022/07/15 03:54:09;;;;;;;7.63;1.08;;;11.70;99.90;;;;;;5016009;27;20037;-72
2022/07/15 03:56:35;;;;;;;7.43;1.13;;;11.80;99.90;;;;;;5035528;27;20083;-72
2022/07/15 03:59:01;;;;;;;3.25;0.90;;;11.70;99.90;;;;;;5034017;27;20574;-72
2022/07/15 04:01:27;;;;;;;6.80;1.15;;;11.80;99.90;;;;;;5057508;27;20045;-71
2022/07/15 04:03:53;;;;;;;5.30;1.05;;;11.80;99.90;;;;;;5028613;27;20477;-72
2022/07/15 04:06:20;;;;;;;6.90;0.93;;;11.90;99.90;;;;;;5023845;27;20055;-72
2022/07/15 04:08:46;;;;;;;7.15;1.00;;;11.90;99.90;;;;;;5015088;28;20465;-71
2022/07/15 04:11:13;;;;;;;6.30;0.95;;;11.90;99.90;;;;;;5056786;27;20508;-72
2022/07/15 04:13:39;;;;;;;6.50;1.13;;;12.00;99.90;;;;;;5066261;27;20048;-72
2022/07/15 04:16:06;;;;;;;5.03;0.70;;;12.00;99.90;;;;;;5040898;27;20053;-73
2022/07/15 04:18:32;;;;;;;5.10;1.10;;;12.10;99.90;;;;;;5035033;27;20059;-72
2022/07/15 04:20:59;;;;;;;6.75;0.98;;;12.10;99.90;;;;;;5006574;28;20045;-73
2022/07/15 04:23:25;;;;;;;5.40;0.90;;;12.20;99.90;;;;;;5031205;27;20269;-72
2022/07/15 04:25:52;;;;;;;3.50;0.82;;;12.30;99.90;;;;;;5036867;27;20097;-72
2022/07/15 04:28:22;;;;;;;4.60;0.70;;;12.30;99.90;;;;;;5040085;27;20064;-71
2022/07/15 04:30:49;;;;;;;4.85;1.08;;;12.40;99.90;;;;;;5037394;27;20145;-71
2022/07/15 04:33:15;;;;;;;5.47;1.10;;;12.50;99.90;;;;;;5052280;27;20133;-72
2022/07/15 04:35:41;;;;;;;6.13;0.75;;;12.50;99.90;;;;;;5047566;27;20047;-71
2022/07/15 04:38:08;;;;;;;4.40;0.75;;;12.60;99.90;;;;;;5021080;28;20446;-72
2022/07/15 04:40:34;;;;;;;5.10;0.93;;;12.90;99.90;;;;;;5014120;27;20046;-71
2022/07/15 04:43:00;;;;;;;5.40;0.70;;;12.90;99.90;;;;;;5040982;27;20070;-72
2022/07/15 04:45:27;;;;;;;7.43;0.85;;;13.00;99.90;;;;;;5052309;27;20148;-71
2022/07/15 04:47:53;;;;;;;4.18;0.70;;;13.00;99.90;;;;;;5028600;27;20107;-71
2022/07/15 04:53:04;;;;;;;5.90;0.80;;;13.00;99.90;;;;;;5041649;27;20049;-71
2022/07/15 04:55:30;;;;;;;3.92;0.70;;;12.90;99.90;;;;;;5039866;27;20066;-71
2022/07/15 04:57:56;;;;;;;3.45;0.50;;;12.80;99.90;;;;;;5023181;27;20409;-72
2022/07/15 05:00:25;;;;;;;4.55;1.02;;;12.80;99.90;;;;;;5039732;27;20432;-71
2022/07/15 05:02:51;;;;;;;6.07;0.70;;;12.70;99.90;;;;;;5051245;27;20037;-71
2022/07/15 05:05:18;;;;;;;3.03;0.70;;;12.70;99.90;;;;;;5011585;27;20061;-71
2022/07/15 05:07:43;;;;;;;7.47;0.95;;;14.10;99.90;;;;;;5055061;27;20055;-72
2022/07/15 05:10:10;;;;;;;7.75;0.88;;;15.80;99.90;;;;;;5052934;27;20044;-71
2022/07/15 05:12:36;;;;;;;4.32;0.60;;;16.80;99.90;;;;;;5034208;27;20064;-71
2022/07/15 05:15:03;;;;;;;3.67;0.90;;;16.90;99.90;;;;;;5029581;27;20105;-72
2022/07/15 05:17:29;;;;;;;5.70;0.70;;;16.50;99.90;;;;;;5058603;27;20067;-71
2022/07/15 05:19:55;;;;;;;3.72;0.63;;;16.50;99.90;;;;;;5026677;27;20450;-71
2022/07/15 05:22:21;;;;;;;6.45;0.70;;;16.20;99.90;;;;;;5010530;28;20037;-72
2022/07/15 05:24:47;;;;;;;4.32;0.70;;;15.90;99.90;;;;;;5031744;27;20044;-71
2022/07/15 05:27:12;;;;;;;6.32;0.82;;;15.70;99.90;;;;;;5011865;28;20310;-72
2022/07/15 05:29:38;;;;;;;6.65;0.80;;;15.40;99.90;;;;;;5030205;27;20167;-71
2022/07/15 05:32:04;;;;;;;7.10;0.90;;;15.20;99.90;;;;;;5032328;27;20090;-71
2022/07/15 05:34:30;;;;;;;5.30;0.80;;;15.00;99.90;;;;;;5027123;27;20049;-71
2022/07/15 05:36:56;;;;;;;7.40;1.08;;;14.90;99.90;;;;;;5023823;27;20125;-72
2022/07/15 05:39:25;;;;;;;3.80;0.80;;;14.80;99.90;;;;;;5017065;27;20041;-72
2022/07/15 05:41:51;;;;;;;6.25;1.45;;;14.70;99.90;;;;;;5052324;27;20574;-71
2022/07/15 05:44:17;;;;;;;5.03;0.93;;;14.70;99.90;;;;;;5039560;27;20342;-71
2022/07/15 05:46:42;;;;;;;5.88;1.02;;;14.60;99.90;;;;;;5014295;28;20427;-72
2022/07/15 05:49:10;;;;;;;3.20;0.82;;;14.60;99.90;;;;;;5022928;27;20113;-71
2022/07/15 05:51:36;;;;;;;9.27;1.33;;;14.60;99.90;;;;;;5024784;27;20060;-71
2022/07/15 05:54:02;;;;;;;4.85;0.80;;;14.60;99.90;;;;;;5055668;27;20052;-71
2022/07/15 05:56:28;;;;;;;7.53;1.15;;;14.60;99.90;;;;;;5051723;27;20060;-72
2022/07/15 05:58:54;;;;;;;3.50;0.75;;;14.60;99.90;;;;;;5038076;27;20137;-72
2022/07/15 06:01:21;;;;;;;3.50;0.80;;;14.60;99.90;;;;;;5029781;27;20116;-73
2022/07/15 06:03:47;;;;;;;5.65;0.93;;;14.60;99.90;;;;;;5032088;27;20393;-71
2022/07/15 06:06:13;;;;;;;3.55;0.60;;;14.70;99.90;;;;;;5027563;28;20048;-71
2022/07/15 06:08:39;;;;;;;5.00;0.82;;;14.70;99.90;;;;;;5028125;27;20037;-72
2022/07/15 06:11:05;;;;;;;5.38;0.80;;;14.70;99.90;;;;;;5038377;27;20117;-72
2022/07/15 06:13:31;;;;;;;4.47;0.60;;;14.70;99.90;;;;;;5018449;28;20045;-71
2022/07/15 06:15:56;;;;;;;4.25;0.75;;;14.80;99.90;;;;;;5006960;28;20057;-71
2022/07/15 06:18:22;;;;;;;5.63;0.80;;;14.90;99.90;;;;;;5020112;28;20056;-71
2022/07/15 06:20:48;;;;;;;3.95;0.70;;;15.00;99.90;;;;;;5007375;28;20393;-72
2022/07/15 06:23:14;;;;;;;3.97;0.45;;;15.10;99.90;;;;;;5024145;27;20454;-70
2022/07/15 06:25:40;;;;;;;6.90;0.73;;;15.20;99.90;;;;;;5023133;28;20049;-70
2022/07/15 06:28:05;;;;;;;4.75;0.73;;;15.40;99.90;;;;;;5005545;28;20303;-71
2022/07/15 06:30:31;;;;;;;3.20;0.70;;;15.40;99.90;;;;;;5014973;27;20406;-70
2022/07/15 06:32:58;;;;;;;8.48;0.70;;;15.60;99.90;;;;;;5044437;27;20036;-71
2022/07/15 06:35:24;;;;;;;4.47;0.90;;;15.90;99.90;;;;;;5007081;27;20064;-71
2022/07/15 06:37:51;;;;;;;5.00;1.02;;;16.30;99.90;;;;;;5031094;27;20029;-72
2022/07/15 06:40:17;;;;;;;3.85;0.75;;;16.80;99.90;;;;;;5022934;28;20585;-71
2022/07/15 06:42:43;;;;;;;4.75;0.75;;;16.70;99.90;;;;;;5043155;27;20049;-71
2022/07/15 06:45:10;;;;;;;3.83;0.65;;;16.60;99.90;;;;;;5028721;27;20060;-72
2022/07/15 06:47:38;;;;;;;2.95;0.60;;;16.50;99.90;;;;;;5043669;27;20049;-72
2022/07/15 06:50:05;;;;;;;7.50;0.90;;;16.50;99.90;;;;;;5026515;27;20083;-74
2022/07/15 06:52:31;;;;;;;3.40;0.60;;;16.60;99.90;;;;;;5019338;27;20077;-73
2022/07/15 06:54:57;;;;;;;5.70;0.73;;;16.50;99.90;;;;;;5022739;27;20044;-72
2022/07/15 06:57:27;;;;;;;8.07;0.60;;;16.50;99.90;;;;;;5037778;28;20308;-72
2022/07/15 06:59:53;;;;;;;8.30;0.93;;;16.50;99.90;;;;;;5037786;27;20401;-73
2022/07/15 07:02:19;;;;;;;2.92;0.70;;;16.50;99.90;;;;;;5023135;27;20041;-72
2022/07/15 07:04:45;;;;;;;5.65;0.60;;;16.60;99.90;;;;;;5041889;27;20515;-72
2022/07/15 07:07:10;;;;;;;7.07;0.70;;;16.70;99.90;;;;;;5042972;28;20675;-72
2022/07/15 07:09:36;;;;;;;3.72;0.95;;;16.80;99.90;;;;;;5046068;27;20354;-72
2022/07/15 07:12:02;;;;;;;5.75;0.75;;;16.90;99.90;;;;;;5040187;27;20048;-72
2022/07/15 07:14:28;;;;;;;5.53;0.55;;;17.00;99.90;;;;;;5017950;27;20112;-72
2022/07/15 07:16:54;;;;;;;5.93;1.10;;;17.00;99.90;;;;;;5014872;28;20509;-72
2022/07/15 07:19:20;;;;;;;2.83;0.50;;;17.00;99.90;;;;;;5008469;28;20401;-71
2022/07/15 07:21:46;;;;;;;2.38;0.50;;;17.30;99.90;;;;;;5038008;28;20052;-71
2022/07/15 07:24:12;;;;;;;4.95;0.90;;;17.60;99.90;;;;;;5027452;27;21016;-73
2022/07/15 07:26:37;;;;;;;4.57;0.60;;;18.00;99.90;;;;;;5041348;27;20048;-71
2022/07/15 07:29:03;;;;;;;4.30;0.73;;;18.30;99.90;;;;;;5016184;27;20053;-71
2022/07/15 07:31:29;;;;;;;2.65;0.70;;;18.80;99.90;;;;;;5044066;27;20033;-72
2022/07/15 07:33:56;;;;;;;2.85;0.60;;;19.70;99.90;;;;;;5028826;27;20519;-71
2022/07/15 07:36:26;;;;;;;6.47;0.82;;;19.90;99.90;;;;;;5046283;27;20420;-71
2022/07/15 07:38:55;;;;;;;4.00;0.73;;;19.80;99.90;;;;;;5046158;27;20173;-72
2022/07/15 07:41:21;;;;;;;6.20;0.77;;;19.50;99.90;;;;;;5054274;27;20057;-72
2022/07/15 07:43:47;;;;;;;5.45;0.55;;;19.20;99.90;;;;;;5037521;27;20067;-71
2022/07/15 07:46:12;;;;;;;2.17;0.50;;;18.90;99.90;;;;;;5018336;28;20147;-71
2022/07/15 07:48:39;;;;;;;2.75;0.50;;;18.60;99.90;;;;;;5039894;27;20033;-71
2022/07/15 07:51:05;;;;;;;3.95;0.55;;;18.30;99.90;;;;;;5048727;27;20041;-71
2022/07/15 07:53:31;;;;;;;5.20;0.70;;;18.20;99.90;;;;;;5024620;27;20137;-71
2022/07/15 07:55:57;;;;;;;4.60;1.13;;;18.40;99.90;;;;;;5050853;27;20034;-71
2022/07/15 07:58:25;;;;;;;2.38;0.47;;;18.90;99.90;;;;;;5023819;27;20508;-70
2022/07/15 08:00:55;;;;;;;4.93;0.55;;;19.40;99.90;;;;;;5029667;27;20332;-71
2022/07/15 08:03:21;;;;;;;7.10;0.63;;;19.60;99.90;;;;;;5008119;27;20120;-71
2022/07/15 08:05:47;;;;;;;6.28;0.60;;;19.30;99.90;;;;;;5008182;27;20045;-72
2022/07/15 08:08:14;;;;;;;2.97;0.45;;;19.10;99.90;;;;;;5044916;27;20690;-71
2022/07/15 08:10:41;;;;;;;5.30;0.80;;;18.80;99.90;;;;;;5021536;27;20900;-71
2022/07/15 08:13:07;;;;;;;1.52;0.52;;;18.70;99.90;;;;;;5054930;27;20061;-72
2022/07/15 08:15:33;;;;;;;3.30;0.60;;;18.60;99.90;;;;;;5051634;27;20056;-70
2022/07/15 08:18:01;;;;;;;2.22;0.47;;;18.60;99.90;;;;;;5049474;27;20045;-70
2022/07/15 08:20:28;;;;;;;5.32;0.50;;;18.60;99.90;;;;;;5008792;27;20049;-70
2022/07/15 08:22:58;;;;;;;1.77;0.55;;;18.60;99.90;;;;;;5055843;27;20037;-71
2022/07/15 08:25:28;;;;;;;3.85;0.80;;;18.70;99.90;;;;;;5020813;27;20113;-71
2022/07/15 08:27:56;;;;;;;2.33;0.38;;;18.90;99.90;;;;;;5026562;27;20081;-70
2022/07/15 08:30:22;;;;;;;2.47;0.60;;;19.30;99.90;;;;;;5022729;28;20433;-71
2022/07/15 08:32:48;;;;;;;3.90;0.38;;;19.70;99.90;;;;;;5054004;28;20037;-71
2022/07/15 08:35:14;;;;;;;2.38;0.40;;;20.20;99.90;;;;;;5034935;27;20041;-70
2022/07/15 08:37:40;;;;;;;2.10;0.28;;;20.70;99.90;;;;;;5052714;28;20241;-71
2022/07/15 08:40:09;;;;;;;4.85;0.50;;;20.90;99.90;;;;;;5036209;27;20139;-71
2022/07/15 08:42:35;;;;;;;4.20;0.68;;;20.70;99.90;;;;;;5029168;27;20037;-71
2022/07/15 08:45:00;;;;;;;3.65;0.60;;;20.30;99.90;;;;;;5033059;27;20049;-72
2022/07/15 08:47:31;;;;;;;3.10;0.55;;;20.00;99.90;;;;;;5009058;28;20511;-71
2022/07/15 08:49:56;;;;;;;4.45;0.50;;;20.20;99.90;;;;;;5037857;27;20037;-71
2022/07/15 08:52:25;;;;;;;2.25;0.38;;;20.90;99.90;;;;;;5026226;27;20051;-71
2022/07/15 08:54:51;;;;;;;1.70;0.30;;;21.60;99.90;;;;;;5037056;27;20045;-71
2022/07/15 08:57:17;;;;;;;4.05;0.65;;;21.50;99.90;;;;;;5048338;27;20526;-71
2022/07/15 08:59:45;;;;;;;1.45;0.45;;;21.10;99.90;;;;;;5052913;27;20398;-71
2022/07/15 09:02:12;;;;;;;2.17;0.47;;;20.70;99.90;;;;;;5028642;27;20523;-71
2022/07/15 09:05:16;;;;;;;2.83;0.57;;;20.40;99.90;;;;;;5061196;27;20408;-71
2022/07/15 09:08:04;;;;;;;2.20;0.38;;;20.10;99.90;;;;;;5044798;27;20057;-71
2022/07/15 09:10:48;;;;;;;3.05;0.50;;;20.00;99.90;;;;;;5019471;28;20041;-71
2022/07/15 09:13:31;;;;;;;2.50;0.57;;;20.10;99.90;;;;;;5035328;27;20136;-71
2022/07/15 09:16:08;;;;;;;4.55;0.50;;;20.40;99.90;;;;;;5017534;27;20710;-71
2022/07/15 09:18:42;;;;;;;5.28;0.90;;;20.60;99.90;;;;;;5051865;27;20102;-71
2022/07/15 09:21:20;;;;;;;5.10;0.77;;;20.60;99.90;;;;;;5029608;27;20052;-71
2022/07/15 09:23:46;;;;;;;3.08;0.40;;;20.40;99.90;;;;;;5035354;27;20087;-71
2022/07/15 09:26:26;;;;;;;3.63;0.55;;;20.30;99.90;;;;;;5044713;27;20074;-70
2022/07/15 09:28:55;;;;;;;1.88;0.38;;;20.10;99.90;;;;;;5041642;27;20049;-71
2022/07/15 09:34:21;;;;;;;2.78;0.38;;;19.90;99.90;;;;;;5033158;27;20056;-71
2022/07/15 09:36:54;;;;;;;3.83;0.45;;;19.90;99.90;;;;;;5052284;27;21204;-71
2022/07/15 09:39:21;;;;;;;3.33;0.50;;;19.90;99.90;;;;;;5037420;27;20037;-71
2022/07/15 09:41:48;;;;;;;2.42;0.40;;;20.00;99.90;;;;;;5041007;27;20274;-71
2022/07/15 09:44:17;;;;;;;2.00;0.68;;;20.00;99.90;;;;;;5031578;27;20284;-70
2022/07/15 09:46:49;;;;;;;2.45;0.50;;;20.10;99.90;;;;;;5041865;27;20053;-71
2022/07/15 09:49:17;;;;;;;2.53;0.68;;;20.10;99.90;;;;;;5037731;27;20461;-71
2022/07/15 09:52:09;;;;;;;5.22;0.50;;;20.20;99.90;;;;;;5051775;27;20059;-71
2022/07/15 09:54:44;;;;;;;2.90;0.47;;;20.30;99.90;;;;;;5062032;27;20061;-71
2022/07/15 09:57:15;;;;;;;4.13;0.68;;;20.40;99.90;;;;;;5061669;27;20040;-71
2022/07/15 09:59:46;;;;;;;2.05;0.40;;;20.60;99.90;;;;;;5041015;27;20050;-70
2022/07/15 10:02:12;;;;;;;5.20;0.68;;;20.90;99.90;;;;;;5044930;27;20076;-71
2022/07/15 10:04:39;;;;;;;2.88;0.55;;;21.40;99.90;;;;;;5055922;27;20062;-71
2022/07/15 10:07:06;;;;;;;4.97;0.60;;;21.90;99.90;;;;;;5038841;27;20491;-70
2022/07/15 10:09:34;;;;;;;4.40;0.70;;;22.10;99.90;;;;;;5050374;27;20193;-69
2022/07/15 10:12:22;;;;;;;2.33;0.40;;;22.00;99.90;;;;;;5059109;27;20350;-70
2022/07/15 10:15:20;;;;;;;4.35;0.60;;;21.70;99.90;;;;;;5035889;27;20475;-70
2022/07/15 10:18:09;;;;;;;4.30;0.60;;;21.40;99.90;;;;;;5030026;27;20376;-70
2022/07/15 10:20:51;;;;;;;3.88;0.50;;;21.20;99.90;;;;;;5035906;27;20116;-70
2022/07/15 10:23:36;;;;;;;5.20;0.60;;;21.10;99.90;;;;;;5065991;27;20047;-70
2022/07/15 10:26:39;;;;;;;3.90;0.45;;;21.20;99.90;;;;;;5042254;27;20099;-71
2022/07/15 10:29:07;;;;;;;3.03;0.52;;;21.50;99.90;;;;;;5037096;27;20108;-71
2022/07/15 10:31:34;;;;;;;7.35;0.63;;;21.60;99.90;;;;;;5044221;27;20064;-70
2022/07/15 10:34:03;;;;;;;1.70;0.60;;;21.50;99.90;;;;;;5029479;27;20041;-70
2022/07/15 10:36:47;;;;;;;3.90;0.50;;;21.70;99.90;;;;;;5031403;27;20037;-70
2022/07/15 10:39:14;;;;;;;3.95;0.73;;;22.30;99.90;;;;;;5020958;27;20564;-70
2022/07/15 10:41:52;;;;;;;5.53;0.55;;;22.50;99.90;;;;;;5022615;27;20062;-70
2022/07/15 10:44:20;;;;;;;3.65;0.60;;;22.40;99.90;;;;;;5042255;27;20095;-71
2022/07/15 10:46:46;;;;;;;4.43;0.50;;;22.50;99.90;;;;;;5040512;27;20048;-71
2022/07/15 10:49:11;;;;;;;6.90;0.60;;;22.50;99.90;;;;;;5056164;27;20600;-71
2022/07/15 10:51:37;;;;;;;3.15;0.52;;;22.40;99.90;;;;;;5051530;27;20052;-72
2022/07/15 10:54:05;;;;;;;2.97;0.40;;;22.00;99.90;;;;;;5044518;27;20412;-71
2022/07/15 10:56:37;;;;;;;1.20;0.30;;;21.70;99.90;;;;;;5053155;27;20057;-72
2022/07/15 10:59:09;;;;;;;3.65;0.60;;;21.50;99.90;;;;;;5017807;27;20406;-71
2022/07/15 11:01:39;;;;;;;2.30;0.70;;;21.40;99.90;;;;;;5023425;27;20140;-71
2022/07/15 11:04:24;;;;;;;4.18;0.82;;;21.40;99.90;;;;;;5032942;27;20298;-73
2022/07/15 11:07:02;;;;;;;2.70;0.57;;;21.40;99.90;;;;;;5031944;27;20128;-71
2022/07/15 11:10:01;;;;;;;2.72;0.50;;;21.20;99.90;;;;;;5018570;27;20069;-72
2022/07/15 11:12:30;;;;;;;2.58;0.52;;;21.00;99.90;;;;;;5018041;27;20036;-71
2022/07/15 11:14:58;;;;;;;1.88;0.45;;;20.70;99.90;;;;;;5000728;27;20595;-71
2022/07/15 11:17:41;;;;;;;5.45;0.75;;;20.60;99.90;;;;;;5029724;27;20484;-71
2022/07/15 11:20:15;;;;;;;4.10;0.60;;;20.40;99.90;;;;;;5006047;27;20063;-72
2022/07/15 11:22:49;;;;;;;2.53;0.70;;;20.40;99.90;;;;;;5016717;27;20049;-71
2022/07/15 11:25:33;;;;;;;3.42;0.85;;;20.40;99.90;;;;;;5055788;27;20051;-71
2022/07/15 11:28:07;;;;;;;1.92;0.50;;;20.50;99.90;;;;;;5036860;27;20109;-71
2022/07/15 11:30:47;;;;;;;3.47;0.50;;;20.70;99.90;;;;;;5029847;27;20131;-72
2022/07/15 11:33:15;;;;;;;3.15;0.60;;;20.80;99.90;;;;;;5051547;27;20073;-71
2022/07/15 11:35:55;;;;;;;3.28;0.68;;;21.00;99.90;;;;;;5033077;27;20470;-71
2022/07/15 11:38:27;;;;;;;2.03;0.50;;;21.40;99.90;;;;;;5040906;27;20061;-71
2022/07/15 11:46:30;;;;;;;3.00;0.70;;;22.20;99.90;;;;;;5061165;27;20057;-71
2022/07/15 11:48:58;;;;;;;2.38;0.77;;;22.70;99.90;;;;;;5017306;28;20053;-70
2022/07/15 11:51:27;;;;;;;2.13;0.57;;;22.90;99.90;;;;;;5064463;27;20351;-71
2022/07/15 11:53:54;;;;;;;2.15;0.47;;;22.90;99.90;;;;;;5043894;27;20056;-72
2022/07/15 11:56:19;;;;;;;4.70;0.60;;;22.60;99.90;;;;;;5012117;28;20062;-72
2022/07/15 11:58:51;;;;;;;3.05;0.63;;;22.20;99.90;;;;;;5041064;28;20046;-72
2022/07/15 12:01:28;;;;;;;4.53;0.70;;;21.80;99.90;;;;;;5022174;28;20464;-72
2022/07/15 12:03:57;;;;;;;2.80;0.70;;;21.40;99.90;;;;;;5030685;28;20411;-72
2022/07/15 12:06:26;;;;;;;6.10;0.70;;;21.00;99.90;;;;;;5014939;28;20046;-72
2022/07/15 12:08:54;;;;;;;2.30;0.63;;;20.80;99.90;;;;;;5020418;28;20045;-72
2022/07/15 12:11:26;;;;;;;2.65;0.50;;;20.70;99.90;;;;;;5013820;28;20051;-72
2022/07/15 12:13:58;;;;;;;4.03;0.60;;;20.60;99.90;;;;;;5023964;27;20073;-71
2022/07/15 12:16:30;;;;;;;4.45;0.70;;;20.50;99.90;;;;;;4997914;28;20043;-72
2022/07/15 12:19:29;;;;;;;2.50;0.50;;;20.40;99.90;;;;;;5008152;28;20076;-72
2022/07/15 12:21:58;;;;;;;2.33;0.60;;;20.30;99.90;;;;;;5013122;28;20566;-74
2022/07/15 12:24:25;;;;;;;4.15;0.68;;;20.20;99.90;;;;;;5025679;28;20550;-73
2022/07/15 12:26:52;;;;;;;4.32;0.82;;;20.20;99.90;;;;;;5029420;28;20072;-72
2022/07/15 12:29:28;;;;;;;3.47;0.80;;;20.10;99.90;;;;;;5030043;27;20095;-73
2022/07/15 12:31:59;;;;;;;3.85;1.00;;;20.20;99.90;;;;;;5039250;27;20064;-74
2022/07/15 12:34:49;;;;;;;4.05;0.60;;;20.20;99.90;;;;;;5008247;28;20046;-72
2022/07/15 12:37:26;;;;;;;2.08;0.70;;;20.20;99.90;;;;;;5021371;28;20549;-72
2022/07/15 12:40:01;;;;;;;1.88;0.60;;;20.20;99.90;;;;;;5012042;28;20079;-71
2022/07/15 12:42:31;;;;;;;2.65;0.80;;;20.20;99.90;;;;;;4990643;28;20061;-72
2022/07/15 12:45:17;;;;;;;2.00;0.60;;;20.10;99.90;;;;;;5016506;27;20457;-72
2022/07/15 12:48:03;;;;;;;4.45;0.93;;;20.10;99.90;;;;;;5024070;27;20770;-71
2022/07/15 12:50:31;;;;;;;4.28;0.88;;;20.00;99.90;;;;;;4996532;28;20037;-71
2022/07/15 12:52:57;;;;;;;3.00;0.60;;;19.90;99.90;;;;;;4999129;28;20042;-72
2022/07/15 12:55:29;;;;;;;2.63;0.70;;;19.90;99.90;;;;;;5043822;27;20583;-73
2022/07/15 12:58:05;;;;;;;4.07;0.60;;;19.90;99.90;;;;;;5025388;27;22006;-72
2022/07/15 13:00:31;;;;;;;5.03;0.82;;;19.80;99.90;;;;;;5012805;28;20487;-72
2022/07/15 13:03:17;;;;;;;5.50;1.35;;;19.80;99.90;;;;;;5023995;28;20032;-71
2022/07/15 13:05:45;;;;;;;3.63;0.95;;;19.70;99.90;;;;;;5001924;28;20046;-70